sensor_id;sensor_type;location;lat;lon;timestamp;P1;durP1;ratioP1;P2;durP2;ratioP2
43626;SDS011;29217;52.586;13.442;2023-04-01T00:01:19;5.22;;;3.28;;
43626;SDS011;29217;52.586;13.442;2023-04-01T00:03:45;6.70;;;3.20;;
43626;SDS011;29217;52.586;13.442;2023-04-01T00:06:12;5.45;;;2.78;;
43626;SDS011;29217;52.586;13.442;2023-04-01T00:08:39;4.60;;;2.95;;
43626;SDS011;29217;52.586;13.442;2023-04-01T00:11:05;5.72;;;2.80;;
43626;SDS011;29217;52.586;13.442;2023-04-01T00:13:31;6.35;;;3.10;;
43626;SDS011;29217;52.586;13.442;2023-04-01T00:15:57;3.67;;;2.70;;
43626;SDS011;29217;52.586;13.442;2023-04-01T00:18:23;5.57;;;3.58;;
43626;SDS011;29217;52.586;13.442;2023-04-01T00:20:50;8.75;;;3.13;;
43626;SDS011;29217;52.586;13.442;2023-04-01T00:23:17;7.35;;;3.10;;
43626;SDS011;29217;52.586;13.442;2023-04-01T00:25:44;6.78;;;2.90;;
43626;SDS011;29217;52.586;13.442;2023-04-01T00:28:12;8.10;;;3.15;;
43626;SDS011;29217;52.586;13.442;2023-04-01T00:30:37;3.47;;;2.60;;
43626;SDS011;29217;52.586;13.442;2023-04-01T00:33:03;4.72;;;3.03;;
43626;SDS011;29217;52.586;13.442;2023-04-01T00:35:29;5.57;;;3.15;;
43626;SDS011;29217;52.586;13.442;2023-04-01T00:37:57;7.00;;;3.15;;
43626;SDS011;29217;52.586;13.442;2023-04-01T00:40:25;4.18;;;2.90;;
43626;SDS011;29217;52.586;13.442;2023-04-01T00:42:51;4.25;;;2.90;;
43626;SDS011;29217;52.586;13.442;2023-04-01T00:45:50;4.78;;;2.60;;
43626;SDS011;29217;52.586;13.442;2023-04-01T00:48:25;3.88;;;2.85;;
43626;SDS011;29217;52.586;13.442;2023-04-01T00:51:07;4.78;;;2.47;;
43626;SDS011;29217;52.586;13.442;2023-04-01T00:53:40;8.23;;;2.85;;
43626;SDS011;29217;52.586;13.442;2023-04-01T00:58:40;4.05;;;2.75;;
43626;SDS011;29217;52.586;13.442;2023-04-01T01:01:09;6.47;;;3.30;;
43626;SDS011;29217;52.586;13.442;2023-04-01T01:03:35;6.63;;;3.13;;
43626;SDS011;29217;52.586;13.442;2023-04-01T01:06:07;10.57;;;3.47;;
43626;SDS011;29217;52.586;13.442;2023-04-01T01:08:52;3.60;;;2.75;;
43626;SDS011;29217;52.586;13.442;2023-04-01T01:11:22;4.07;;;2.83;;
43626;SDS011;29217;52.586;13.442;2023-04-01T01:14:04;4.80;;;2.83;;
43626;SDS011;29217;52.586;13.442;2023-04-01T01:16:34;5.57;;;3.10;;
43626;SDS011;29217;52.586;13.442;2023-04-01T01:21:55;4.03;;;3.05;;
43626;SDS011;29217;52.586;13.442;2023-04-01T01:27:18;4.93;;;2.78;;
43626;SDS011;29217;52.586;13.442;2023-04-01T01:33:06;5.90;;;3.10;;
43626;SDS011;29217;52.586;13.442;2023-04-01T01:35:57;7.03;;;3.00;;
43626;SDS011;29217;52.586;13.442;2023-04-01T01:38:26;6.20;;;3.20;;
43626;SDS011;29217;52.586;13.442;2023-04-01T01:40:57;7.00;;;3.05;;
43626;SDS011;29217;52.586;13.442;2023-04-01T01:43:25;8.98;;;3.67;;
43626;SDS011;29217;52.586;13.442;2023-04-01T01:45:58;4.82;;;3.00;;
43626;SDS011;29217;52.586;13.442;2023-04-01T01:48:27;6.82;;;3.58;;
43626;SDS011;29217;52.586;13.442;2023-04-01T01:50:55;5.85;;;2.92;;
43626;SDS011;29217;52.586;13.442;2023-04-01T01:53:21;6.90;;;2.85;;
43626;SDS011;29217;52.586;13.442;2023-04-01T01:55:47;6.30;;;3.05;;
43626;SDS011;29217;52.586;13.442;2023-04-01T01:58:21;3.58;;;2.40;;
43626;SDS011;29217;52.586;13.442;2023-04-01T02:00:50;6.50;;;3.00;;
43626;SDS011;29217;52.586;13.442;2023-04-01T02:03:43;6.40;;;2.80;;
43626;SDS011;29217;52.586;13.442;2023-04-01T02:06:11;5.85;;;2.97;;
43626;SDS011;29217;52.586;13.442;2023-04-01T02:08:51;4.65;;;2.78;;
43626;SDS011;29217;52.586;13.442;2023-04-01T02:11:18;5.15;;;3.13;;
43626;SDS011;29217;52.586;13.442;2023-04-01T02:16:31;3.20;;;2.38;;
43626;SDS011;29217;52.586;13.442;2023-04-01T02:19:06;4.97;;;3.00;;
43626;SDS011;29217;52.586;13.442;2023-04-01T02:21:34;5.32;;;3.05;;
43626;SDS011;29217;52.586;13.442;2023-04-01T02:24:01;7.03;;;2.95;;
43626;SDS011;29217;52.586;13.442;2023-04-01T02:26:30;4.68;;;2.63;;
43626;SDS011;29217;52.586;13.442;2023-04-01T02:28:56;8.35;;;3.00;;
43626;SDS011;29217;52.586;13.442;2023-04-01T02:31:25;5.13;;;2.90;;
43626;SDS011;29217;52.586;13.442;2023-04-01T02:33:50;7.43;;;2.75;;
43626;SDS011;29217;52.586;13.442;2023-04-01T02:36:17;5.22;;;2.95;;
43626;SDS011;29217;52.586;13.442;2023-04-01T02:38:43;4.93;;;2.53;;
43626;SDS011;29217;52.586;13.442;2023-04-01T02:41:10;7.25;;;2.85;;
43626;SDS011;29217;52.586;13.442;2023-04-01T02:43:36;4.93;;;3.13;;
43626;SDS011;29217;52.586;13.442;2023-04-01T02:46:02;6.43;;;2.65;;
43626;SDS011;29217;52.586;13.442;2023-04-01T02:48:31;7.63;;;2.70;;
43626;SDS011;29217;52.586;13.442;2023-04-01T02:50:56;4.53;;;2.97;;
43626;SDS011;29217;52.586;13.442;2023-04-01T02:53:22;5.15;;;3.10;;
43626;SDS011;29217;52.586;13.442;2023-04-01T02:55:48;5.97;;;3.08;;
43626;SDS011;29217;52.586;13.442;2023-04-01T02:58:17;6.97;;;3.42;;
43626;SDS011;29217;52.586;13.442;2023-04-01T03:00:43;6.15;;;2.92;;
43626;SDS011;29217;52.586;13.442;2023-04-01T03:03:09;5.28;;;2.83;;
43626;SDS011;29217;52.586;13.442;2023-04-01T03:05:34;5.55;;;3.05;;
43626;SDS011;29217;52.586;13.442;2023-04-01T03:08:01;5.15;;;2.95;;
43626;SDS011;29217;52.586;13.442;2023-04-01T03:10:27;6.93;;;2.95;;
43626;SDS011;29217;52.586;13.442;2023-04-01T03:12:53;4.20;;;3.00;;
43626;SDS011;29217;52.586;13.442;2023-04-01T03:15:18;9.07;;;3.47;;
43626;SDS011;29217;52.586;13.442;2023-04-01T03:17:44;5.75;;;3.30;;
43626;SDS011;29217;52.586;13.442;2023-04-01T03:20:11;4.22;;;3.30;;
43626;SDS011;29217;52.586;13.442;2023-04-01T03:22:38;7.03;;;3.25;;
43626;SDS011;29217;52.586;13.442;2023-04-01T03:25:04;7.32;;;3.30;;
43626;SDS011;29217;52.586;13.442;2023-04-01T03:27:32;5.43;;;3.30;;
43626;SDS011;29217;52.586;13.442;2023-04-01T03:29:59;5.97;;;3.53;;
43626;SDS011;29217;52.586;13.442;2023-04-01T03:32:24;6.88;;;3.63;;
43626;SDS011;29217;52.586;13.442;2023-04-01T03:34:50;5.35;;;3.10;;
43626;SDS011;29217;52.586;13.442;2023-04-01T03:37:15;4.50;;;3.25;;
43626;SDS011;29217;52.586;13.442;2023-04-01T03:39:41;6.32;;;3.58;;
43626;SDS011;29217;52.586;13.442;2023-04-01T03:42:06;6.57;;;3.97;;
43626;SDS011;29217;52.586;13.442;2023-04-01T03:44:33;5.38;;;3.58;;
43626;SDS011;29217;52.586;13.442;2023-04-01T03:46:59;6.78;;;3.78;;
43626;SDS011;29217;52.586;13.442;2023-04-01T03:49:25;5.68;;;3.28;;
43626;SDS011;29217;52.586;13.442;2023-04-01T03:51:51;7.03;;;4.00;;
43626;SDS011;29217;52.586;13.442;2023-04-01T03:54:17;6.45;;;3.50;;
43626;SDS011;29217;52.586;13.442;2023-04-01T03:56:44;7.18;;;3.90;;
43626;SDS011;29217;52.586;13.442;2023-04-01T03:59:10;7.80;;;3.53;;
43626;SDS011;29217;52.586;13.442;2023-04-01T04:01:36;11.40;;;4.72;;
43626;SDS011;29217;52.586;13.442;2023-04-01T04:04:02;5.85;;;3.45;;
43626;SDS011;29217;52.586;13.442;2023-04-01T04:06:28;5.80;;;3.92;;
43626;SDS011;29217;52.586;13.442;2023-04-01T04:08:53;6.57;;;3.83;;
43626;SDS011;29217;52.586;13.442;2023-04-01T04:11:19;6.07;;;4.05;;
43626;SDS011;29217;52.586;13.442;2023-04-01T04:13:46;5.85;;;4.00;;
43626;SDS011;29217;52.586;13.442;2023-04-01T04:16:13;6.78;;;4.30;;
43626;SDS011;29217;52.586;13.442;2023-04-01T04:18:39;9.10;;;3.85;;
43626;SDS011;29217;52.586;13.442;2023-04-01T04:21:05;7.07;;;4.07;;
43626;SDS011;29217;52.586;13.442;2023-04-01T04:23:31;6.10;;;3.88;;
43626;SDS011;29217;52.586;13.442;2023-04-01T04:26:02;7.25;;;3.60;;
43626;SDS011;29217;52.586;13.442;2023-04-01T04:28:30;6.50;;;3.70;;
43626;SDS011;29217;52.586;13.442;2023-04-01T04:30:56;7.40;;;4.10;;
43626;SDS011;29217;52.586;13.442;2023-04-01T04:33:22;6.65;;;4.07;;
43626;SDS011;29217;52.586;13.442;2023-04-01T04:35:49;7.57;;;3.58;;
43626;SDS011;29217;52.586;13.442;2023-04-01T04:38:15;10.80;;;4.05;;
43626;SDS011;29217;52.586;13.442;2023-04-01T04:40:42;7.72;;;3.70;;
43626;SDS011;29217;52.586;13.442;2023-04-01T04:43:12;7.07;;;4.30;;
43626;SDS011;29217;52.586;13.442;2023-04-01T04:45:38;7.47;;;4.13;;
43626;SDS011;29217;52.586;13.442;2023-04-01T04:48:04;7.18;;;3.72;;
43626;SDS011;29217;52.586;13.442;2023-04-01T04:50:31;10.23;;;4.65;;
43626;SDS011;29217;52.586;13.442;2023-04-01T04:52:57;9.18;;;4.72;;
43626;SDS011;29217;52.586;13.442;2023-04-01T04:55:22;11.10;;;4.65;;
43626;SDS011;29217;52.586;13.442;2023-04-01T04:57:48;7.65;;;4.22;;
43626;SDS011;29217;52.586;13.442;2023-04-01T05:00:13;7.38;;;3.88;;
43626;SDS011;29217;52.586;13.442;2023-04-01T05:02:39;7.93;;;3.92;;
43626;SDS011;29217;52.586;13.442;2023-04-01T05:05:05;8.93;;;4.20;;
43626;SDS011;29217;52.586;13.442;2023-04-01T05:07:31;5.35;;;3.63;;
43626;SDS011;29217;52.586;13.442;2023-04-01T05:09:57;4.85;;;3.40;;
43626;SDS011;29217;52.586;13.442;2023-04-01T05:12:23;6.25;;;3.58;;
43626;SDS011;29217;52.586;13.442;2023-04-01T05:14:48;7.70;;;4.10;;
43626;SDS011;29217;52.586;13.442;2023-04-01T05:17:14;7.72;;;4.18;;
43626;SDS011;29217;52.586;13.442;2023-04-01T05:19:40;7.72;;;4.07;;
43626;SDS011;29217;52.586;13.442;2023-04-01T05:22:05;9.60;;;3.85;;
43626;SDS011;29217;52.586;13.442;2023-04-01T05:24:31;7.63;;;4.07;;
43626;SDS011;29217;52.586;13.442;2023-04-01T05:26:58;4.97;;;3.50;;
43626;SDS011;29217;52.586;13.442;2023-04-01T05:29:24;5.78;;;3.55;;
43626;SDS011;29217;52.586;13.442;2023-04-01T05:31:51;6.28;;;4.13;;
43626;SDS011;29217;52.586;13.442;2023-04-01T05:34:16;8.40;;;3.78;;
43626;SDS011;29217;52.586;13.442;2023-04-01T05:36:42;9.07;;;4.03;;
43626;SDS011;29217;52.586;13.442;2023-04-01T05:39:08;9.32;;;4.50;;
43626;SDS011;29217;52.586;13.442;2023-04-01T05:41:35;9.32;;;4.32;;
43626;SDS011;29217;52.586;13.442;2023-04-01T05:44:01;8.77;;;5.03;;
43626;SDS011;29217;52.586;13.442;2023-04-01T05:46:27;8.57;;;4.63;;
43626;SDS011;29217;52.586;13.442;2023-04-01T05:48:53;7.88;;;4.97;;
43626;SDS011;29217;52.586;13.442;2023-04-01T05:51:19;10.23;;;4.72;;
43626;SDS011;29217;52.586;13.442;2023-04-01T05:53:45;11.63;;;4.53;;
43626;SDS011;29217;52.586;13.442;2023-04-01T05:56:10;7.70;;;4.25;;
43626;SDS011;29217;52.586;13.442;2023-04-01T05:58:37;7.93;;;4.38;;
43626;SDS011;29217;52.586;13.442;2023-04-01T06:01:04;8.25;;;4.88;;
43626;SDS011;29217;52.586;13.442;2023-04-01T06:03:31;9.55;;;4.68;;
43626;SDS011;29217;52.586;13.442;2023-04-01T06:05:57;10.90;;;5.72;;
43626;SDS011;29217;52.586;13.442;2023-04-01T06:08:23;14.80;;;6.60;;
43626;SDS011;29217;52.586;13.442;2023-04-01T06:10:55;18.48;;;8.10;;
43626;SDS011;29217;52.586;13.442;2023-04-01T06:13:47;17.98;;;7.82;;
43626;SDS011;29217;52.586;13.442;2023-04-01T06:19:12;13.20;;;7.88;;
43626;SDS011;29217;52.586;13.442;2023-04-01T06:25:17;9.48;;;5.25;;
43626;SDS011;29217;52.586;13.442;2023-04-01T06:47:22;9.73;;;5.57;;
43626;SDS011;29217;52.586;13.442;2023-04-01T06:49:57;11.48;;;4.95;;
43626;SDS011;29217;52.586;13.442;2023-04-01T06:55:28;9.85;;;5.28;;
43626;SDS011;29217;52.586;13.442;2023-04-01T06:58:02;10.75;;;6.00;;
43626;SDS011;29217;52.586;13.442;2023-04-01T07:00:38;10.07;;;5.55;;
43626;SDS011;29217;52.586;13.442;2023-04-01T07:03:13;13.20;;;6.55;;
43626;SDS011;29217;52.586;13.442;2023-04-01T07:06:05;12.48;;;6.60;;
43626;SDS011;29217;52.586;13.442;2023-04-01T07:08:36;12.40;;;6.53;;
43626;SDS011;29217;52.586;13.442;2023-04-01T07:11:06;12.57;;;6.47;;
43626;SDS011;29217;52.586;13.442;2023-04-01T07:18:45;13.50;;;7.22;;
43626;SDS011;29217;52.586;13.442;2023-04-01T07:21:29;18.77;;;7.55;;
43626;SDS011;29217;52.586;13.442;2023-04-01T07:24:05;13.68;;;7.05;;
43626;SDS011;29217;52.586;13.442;2023-04-01T07:26:34;15.23;;;7.22;;
43626;SDS011;29217;52.586;13.442;2023-04-01T07:28:59;11.68;;;6.07;;
43626;SDS011;29217;52.586;13.442;2023-04-01T07:51:48;7.47;;;4.15;;
43626;SDS011;29217;52.586;13.442;2023-04-01T08:05:18;9.13;;;4.85;;
43626;SDS011;29217;52.586;13.442;2023-04-01T08:10:57;11.90;;;5.75;;
43626;SDS011;29217;52.586;13.442;2023-04-01T08:13:44;11.38;;;5.30;;
43626;SDS011;29217;52.586;13.442;2023-04-01T08:21:52;15.45;;;6.50;;
43626;SDS011;29217;52.586;13.442;2023-04-01T08:24:40;14.00;;;6.78;;
43626;SDS011;29217;52.586;13.442;2023-04-01T08:29:57;12.20;;;6.07;;
43626;SDS011;29217;52.586;13.442;2023-04-01T08:32:31;18.08;;;7.30;;
43626;SDS011;29217;52.586;13.442;2023-04-01T08:35:07;14.07;;;6.40;;
43626;SDS011;29217;52.586;13.442;2023-04-01T08:37:45;12.10;;;6.38;;
43626;SDS011;29217;52.586;13.442;2023-04-01T08:50:36;18.05;;;9.23;;
43626;SDS011;29217;52.586;13.442;2023-04-01T08:53:22;18.80;;;9.48;;
43626;SDS011;29217;52.586;13.442;2023-04-01T08:56:22;18.08;;;8.32;;
43626;SDS011;29217;52.586;13.442;2023-04-01T09:01:48;20.20;;;10.23;;
43626;SDS011;29217;52.586;13.442;2023-04-01T09:04:42;16.48;;;9.25;;
43626;SDS011;29217;52.586;13.442;2023-04-01T09:09:55;16.63;;;8.90;;
43626;SDS011;29217;52.586;13.442;2023-04-01T09:12:49;17.48;;;8.77;;
43626;SDS011;29217;52.586;13.442;2023-04-01T09:15:37;13.70;;;7.60;;
43626;SDS011;29217;52.586;13.442;2023-04-01T09:32:01;12.85;;;7.78;;
43626;SDS011;29217;52.586;13.442;2023-04-01T09:37:17;16.05;;;8.48;;
43626;SDS011;29217;52.586;13.442;2023-04-01T09:42:29;17.83;;;9.68;;
43626;SDS011;29217;52.586;13.442;2023-04-01T09:48:35;19.25;;;10.07;;
43626;SDS011;29217;52.586;13.442;2023-04-01T09:59:24;24.05;;;10.25;;
43626;SDS011;29217;52.586;13.442;2023-04-01T10:04:27;21.27;;;10.02;;
43626;SDS011;29217;52.586;13.442;2023-04-01T10:15:34;19.98;;;10.27;;
43626;SDS011;29217;52.586;13.442;2023-04-01T10:29:43;16.73;;;9.70;;
43626;SDS011;29217;52.586;13.442;2023-04-01T10:49:46;12.55;;;8.15;;
43626;SDS011;29217;52.586;13.442;2023-04-01T10:55:37;17.27;;;9.02;;
43626;SDS011;29217;52.586;13.442;2023-04-01T11:12:36;16.17;;;9.07;;
43626;SDS011;29217;52.586;13.442;2023-04-01T11:15:30;17.50;;;9.23;;
43626;SDS011;29217;52.586;13.442;2023-04-01T11:18:31;16.27;;;8.77;;
43626;SDS011;29217;52.586;13.442;2023-04-01T11:27:07;17.50;;;10.00;;
43626;SDS011;29217;52.586;13.442;2023-04-01T11:35:25;17.13;;;9.60;;
43626;SDS011;29217;52.586;13.442;2023-04-01T11:46:23;16.55;;;9.40;;
43626;SDS011;29217;52.586;13.442;2023-04-01T11:49:14;18.75;;;10.88;;
43626;SDS011;29217;52.586;13.442;2023-04-01T11:57:43;19.73;;;11.25;;
43626;SDS011;29217;52.586;13.442;2023-04-01T12:06:53;18.52;;;10.27;;
43626;SDS011;29217;52.586;13.442;2023-04-01T12:09:46;15.25;;;9.35;;
43626;SDS011;29217;52.586;13.442;2023-04-01T12:12:46;16.15;;;9.65;;
43626;SDS011;29217;52.586;13.442;2023-04-01T12:21:25;16.02;;;9.90;;
43626;SDS011;29217;52.586;13.442;2023-04-01T12:32:18;16.70;;;9.18;;
43626;SDS011;29217;52.586;13.442;2023-04-01T12:34:58;16.42;;;9.02;;
43626;SDS011;29217;52.586;13.442;2023-04-01T13:05:20;25.83;;;12.60;;
43626;SDS011;29217;52.586;13.442;2023-04-01T13:08:00;21.45;;;10.50;;
43626;SDS011;29217;52.586;13.442;2023-04-01T13:10:38;19.15;;;9.35;;
43626;SDS011;29217;52.586;13.442;2023-04-01T13:16:31;17.27;;;10.15;;
43626;SDS011;29217;52.586;13.442;2023-04-01T13:19:07;20.02;;;10.15;;
43626;SDS011;29217;52.586;13.442;2023-04-01T13:21:50;14.73;;;7.55;;
43626;SDS011;29217;52.586;13.442;2023-04-01T13:32:40;13.05;;;7.47;;
43626;SDS011;29217;52.586;13.442;2023-04-01T13:35:14;13.90;;;8.00;;
43626;SDS011;29217;52.586;13.442;2023-04-01T13:38:09;11.80;;;6.70;;
43626;SDS011;29217;52.586;13.442;2023-04-01T13:41:23;13.05;;;7.25;;
43626;SDS011;29217;52.586;13.442;2023-04-01T13:44:06;10.82;;;6.55;;
43626;SDS011;29217;52.586;13.442;2023-04-01T13:47:24;9.10;;;5.82;;
43626;SDS011;29217;52.586;13.442;2023-04-01T13:52:51;9.90;;;6.22;;
43626;SDS011;29217;52.586;13.442;2023-04-01T13:58:20;10.82;;;6.28;;
43626;SDS011;29217;52.586;13.442;2023-04-01T14:01:48;7.63;;;5.03;;
43626;SDS011;29217;52.586;13.442;2023-04-01T14:04:50;9.00;;;5.13;;
43626;SDS011;29217;52.586;13.442;2023-04-01T14:16:41;6.35;;;3.88;;
43626;SDS011;29217;52.586;13.442;2023-04-01T14:22:28;6.88;;;4.72;;
43626;SDS011;29217;52.586;13.442;2023-04-01T14:39:15;6.78;;;4.47;;
43626;SDS011;29217;52.586;13.442;2023-04-01T14:47:43;6.32;;;3.80;;
43626;SDS011;29217;52.586;13.442;2023-04-01T14:50:25;5.70;;;3.85;;
43626;SDS011;29217;52.586;13.442;2023-04-01T14:53:09;6.30;;;4.25;;
43626;SDS011;29217;52.586;13.442;2023-04-01T14:55:50;6.57;;;4.50;;
43626;SDS011;29217;52.586;13.442;2023-04-01T14:58:43;7.43;;;4.38;;
43626;SDS011;29217;52.586;13.442;2023-04-01T15:12:07;7.50;;;4.93;;
43626;SDS011;29217;52.586;13.442;2023-04-01T15:14:55;6.63;;;4.72;;
43626;SDS011;29217;52.586;13.442;2023-04-01T15:20:18;8.27;;;4.65;;
43626;SDS011;29217;52.586;13.442;2023-04-01T15:31:00;8.43;;;5.20;;
43626;SDS011;29217;52.586;13.442;2023-04-01T15:36:51;8.57;;;5.13;;
43626;SDS011;29217;52.586;13.442;2023-04-01T15:50:50;9.32;;;5.57;;
43626;SDS011;29217;52.586;13.442;2023-04-01T15:58:57;9.60;;;5.28;;
43626;SDS011;29217;52.586;13.442;2023-04-01T16:01:35;6.72;;;3.55;;
43626;SDS011;29217;52.586;13.442;2023-04-01T16:07:17;5.72;;;3.70;;
43626;SDS011;29217;52.586;13.442;2023-04-01T16:09:56;6.70;;;4.15;;
43626;SDS011;29217;52.586;13.442;2023-04-01T16:23:17;5.43;;;3.83;;
43626;SDS011;29217;52.586;13.442;2023-04-01T16:26:13;7.38;;;3.53;;
43626;SDS011;29217;52.586;13.442;2023-04-01T16:29:04;7.03;;;3.85;;
43626;SDS011;29217;52.586;13.442;2023-04-01T16:31:49;5.32;;;3.95;;
43626;SDS011;29217;52.586;13.442;2023-04-01T16:34:19;6.50;;;3.58;;
43626;SDS011;29217;52.586;13.442;2023-04-01T16:42:24;6.68;;;3.88;;
43626;SDS011;29217;52.586;13.442;2023-04-01T16:47:56;5.88;;;3.22;;
43626;SDS011;29217;52.586;13.442;2023-04-01T16:50:41;5.07;;;3.03;;
43626;SDS011;29217;52.586;13.442;2023-04-01T16:55:51;5.53;;;3.35;;
43626;SDS011;29217;52.586;13.442;2023-04-01T16:58:35;7.85;;;4.22;;
43626;SDS011;29217;52.586;13.442;2023-04-01T17:01:24;4.70;;;2.83;;
43626;SDS011;29217;52.586;13.442;2023-04-01T17:03:57;8.48;;;3.58;;
43626;SDS011;29217;52.586;13.442;2023-04-01T17:06:46;5.68;;;3.40;;
43626;SDS011;29217;52.586;13.442;2023-04-01T17:09:24;8.52;;;4.50;;
43626;SDS011;29217;52.586;13.442;2023-04-01T17:12:54;7.10;;;2.97;;
43626;SDS011;29217;52.586;13.442;2023-04-01T17:20:27;5.55;;;3.58;;
43626;SDS011;29217;52.586;13.442;2023-04-01T17:28:47;4.97;;;3.47;;
43626;SDS011;29217;52.586;13.442;2023-04-01T17:34:10;7.95;;;4.03;;
43626;SDS011;29217;52.586;13.442;2023-04-01T17:39:41;7.63;;;4.47;;
43626;SDS011;29217;52.586;13.442;2023-04-01T17:42:19;7.45;;;4.30;;
43626;SDS011;29217;52.586;13.442;2023-04-01T17:45:16;6.45;;;4.20;;
43626;SDS011;29217;52.586;13.442;2023-04-01T17:59:39;5.55;;;3.88;;
43626;SDS011;29217;52.586;13.442;2023-04-01T18:05:13;6.82;;;3.80;;
43626;SDS011;29217;52.586;13.442;2023-04-01T18:10:28;5.70;;;3.85;;
43626;SDS011;29217;52.586;13.442;2023-04-01T18:13:37;8.25;;;4.20;;
43626;SDS011;29217;52.586;13.442;2023-04-01T18:16:18;7.18;;;4.38;;
43626;SDS011;29217;52.586;13.442;2023-04-01T18:19:06;8.57;;;4.90;;
43626;SDS011;29217;52.586;13.442;2023-04-01T18:24:45;6.05;;;3.83;;
43626;SDS011;29217;52.586;13.442;2023-04-01T18:27:27;7.32;;;4.28;;
43626;SDS011;29217;52.586;13.442;2023-04-01T18:35:58;9.07;;;5.07;;
43626;SDS011;29217;52.586;13.442;2023-04-01T18:38:44;5.22;;;3.63;;
43626;SDS011;29217;52.586;13.442;2023-04-01T18:44:36;8.10;;;5.22;;
43626;SDS011;29217;52.586;13.442;2023-04-01T18:49:46;11.00;;;5.47;;
43626;SDS011;29217;52.586;13.442;2023-04-01T18:57:47;10.25;;;5.22;;
43626;SDS011;29217;52.586;13.442;2023-04-01T19:00:22;13.52;;;6.60;;
43626;SDS011;29217;52.586;13.442;2023-04-01T19:02:55;13.30;;;7.57;;
43626;SDS011;29217;52.586;13.442;2023-04-01T19:05:31;14.32;;;6.65;;
43626;SDS011;29217;52.586;13.442;2023-04-01T19:08:14;13.57;;;6.63;;
43626;SDS011;29217;52.586;13.442;2023-04-01T19:13:44;11.05;;;6.25;;
43626;SDS011;29217;52.586;13.442;2023-04-01T19:35:50;12.90;;;5.93;;
43626;SDS011;29217;52.586;13.442;2023-04-01T19:38:51;15.00;;;6.75;;
43626;SDS011;29217;52.586;13.442;2023-04-01T20:00:19;12.60;;;7.88;;
43626;SDS011;29217;52.586;13.442;2023-04-01T20:03:07;13.27;;;6.60;;
43626;SDS011;29217;52.586;13.442;2023-04-01T20:08:22;10.98;;;4.95;;
43626;SDS011;29217;52.586;13.442;2023-04-01T20:10:54;15.73;;;7.75;;
43626;SDS011;29217;52.586;13.442;2023-04-01T20:19:09;8.23;;;5.20;;
43626;SDS011;29217;52.586;13.442;2023-04-01T20:21:41;18.75;;;8.50;;
43626;SDS011;29217;52.586;13.442;2023-04-01T20:26:48;15.40;;;7.82;;
43626;SDS011;29217;52.586;13.442;2023-04-01T20:29:23;13.13;;;7.82;;
43626;SDS011;29217;52.586;13.442;2023-04-01T20:32:18;10.27;;;6.32;;
43626;SDS011;29217;52.586;13.442;2023-04-01T20:37:48;16.92;;;7.68;;
43626;SDS011;29217;52.586;13.442;2023-04-01T20:40:33;13.55;;;7.82;;
43626;SDS011;29217;52.586;13.442;2023-04-01T20:45:55;19.00;;;8.18;;
43626;SDS011;29217;52.586;13.442;2023-04-01T20:48:31;22.10;;;9.90;;
43626;SDS011;29217;52.586;13.442;2023-04-01T20:51:21;12.05;;;6.45;;
43626;SDS011;29217;52.586;13.442;2023-04-01T20:56:55;20.70;;;8.23;;
43626;SDS011;29217;52.586;13.442;2023-04-01T20:59:35;17.27;;;8.32;;
43626;SDS011;29217;52.586;13.442;2023-04-01T21:02:29;15.88;;;7.80;;
43626;SDS011;29217;52.586;13.442;2023-04-01T21:35:43;12.40;;;5.75;;
43626;SDS011;29217;52.586;13.442;2023-04-01T21:47:08;11.00;;;6.07;;
43626;SDS011;29217;52.586;13.442;2023-04-01T22:00:27;9.38;;;5.70;;
43626;SDS011;29217;52.586;13.442;2023-04-01T22:10:48;8.82;;;4.78;;
43626;SDS011;29217;52.586;13.442;2023-04-01T22:13:29;7.78;;;4.43;;
43626;SDS011;29217;52.586;13.442;2023-04-01T22:18:39;7.25;;;4.05;;
43626;SDS011;29217;52.586;13.442;2023-04-01T22:21:17;8.43;;;4.60;;
43626;SDS011;29217;52.586;13.442;2023-04-01T22:24:21;6.20;;;3.83;;
43626;SDS011;29217;52.586;13.442;2023-04-01T22:30:18;6.18;;;3.72;;
43626;SDS011;29217;52.586;13.442;2023-04-01T22:32:52;5.97;;;4.65;;
43626;SDS011;29217;52.586;13.442;2023-04-01T22:35:43;8.05;;;4.57;;
43626;SDS011;29217;52.586;13.442;2023-04-01T22:43:43;7.03;;;3.95;;
43626;SDS011;29217;52.586;13.442;2023-04-01T22:48:43;7.28;;;5.07;;
43626;SDS011;29217;52.586;13.442;2023-04-01T22:56:39;5.47;;;4.28;;
43626;SDS011;29217;52.586;13.442;2023-04-01T22:59:18;7.25;;;4.35;;
43626;SDS011;29217;52.586;13.442;2023-04-01T23:01:47;7.15;;;4.63;;
43626;SDS011;29217;52.586;13.442;2023-04-01T23:04:22;4.63;;;3.13;;
43626;SDS011;29217;52.586;13.442;2023-04-01T23:06:55;6.32;;;4.38;;
43626;SDS011;29217;52.586;13.442;2023-04-01T23:09:25;6.03;;;3.92;;
43626;SDS011;29217;52.586;13.442;2023-04-01T23:12:06;4.57;;;3.30;;
43626;SDS011;29217;52.586;13.442;2023-04-01T23:14:54;8.02;;;5.03;;
43626;SDS011;29217;52.586;13.442;2023-04-01T23:20:15;6.20;;;4.07;;
43626;SDS011;29217;52.586;13.442;2023-04-01T23:33:10;10.43;;;4.70;;
43626;SDS011;29217;52.586;13.442;2023-04-01T23:36:02;8.70;;;5.00;;
43626;SDS011;29217;52.586;13.442;2023-04-01T23:38:36;6.78;;;4.20;;
43626;SDS011;29217;52.586;13.442;2023-04-01T23:41:04;11.15;;;4.90;;
43626;SDS011;29217;52.586;13.442;2023-04-01T23:43:32;6.97;;;4.35;;
43626;SDS011;29217;52.586;13.442;2023-04-01T23:46:01;9.50;;;5.25;;
43626;SDS011;29217;52.586;13.442;2023-04-01T23:48:42;6.78;;;4.15;;
43626;SDS011;29217;52.586;13.442;2023-04-01T23:51:35;6.40;;;4.45;;
43626;SDS011;29217;52.586;13.442;2023-04-01T23:54:26;7.47;;;4.15;;
43626;SDS011;29217;52.586;13.442;2023-04-01T23:57:10;6.50;;;3.58;;
43626;SDS011;29217;52.586;13.442;2023-04-01T23:59:39;4.78;;;3.38;;
